createdAt,value
2023-03-25T00:01:34.015Z,4.60
2023-03-25T00:04:39.334Z,5.23
2023-03-25T00:07:42.496Z,5.13
2023-03-25T00:10:44.531Z,4.83
2023-03-25T00:13:48.266Z,4.27
2023-03-25T00:16:53.215Z,5.03
2023-03-25T00:19:55.940Z,5.17
2023-03-25T00:22:57.964Z,4.23
2023-03-25T00:26:00.593Z,6.30
2023-03-25T00:29:02.689Z,5.33
2023-03-25T00:32:04.931Z,5.63
2023-03-25T00:35:08.560Z,6.10
2023-03-25T00:38:38.235Z,6.03
2023-03-25T00:41:42.524Z,6.27
2023-03-25T00:44:44.540Z,6.93
2023-03-25T00:47:46.934Z,6.00
2023-03-25T00:50:49.036Z,7.70
2023-03-25T00:53:53.518Z,6.30
2023-03-25T00:56:56.853Z,6.03
2023-03-25T00:59:58.935Z,4.87
2023-03-25T01:03:04.394Z,6.47
2023-03-25T01:06:11.695Z,5.60
2023-03-25T01:09:15.358Z,5.47
2023-03-25T01:12:19.110Z,5.40
2023-03-25T01:15:21.461Z,6.40
2023-03-25T01:18:23.499Z,5.43
2023-03-25T01:21:25.583Z,6.83
2023-03-25T01:24:27.894Z,5.50
2023-03-25T01:27:30.821Z,6.57
2023-03-25T01:30:32.914Z,5.83
2023-03-25T01:33:35.265Z,5.33
2023-03-25T01:36:39.980Z,5.07
2023-03-25T01:39:44.229Z,4.87
2023-03-25T01:42:46.723Z,4.97
2023-03-25T01:45:49.216Z,6.20
2023-03-25T01:48:51.515Z,5.67
2023-03-25T01:52:04.961Z,4.67
2023-03-25T01:55:08.387Z,5.93
2023-03-25T01:58:15.527Z,5.97
2023-03-25T02:01:21.904Z,4.80
2023-03-25T02:04:39.355Z,5.47
2023-03-25T02:07:43.098Z,5.80
2023-03-25T02:10:47.129Z,6.80
2023-03-25T02:13:49.158Z,6.43
2023-03-25T02:17:18.840Z,5.30
2023-03-25T02:20:59.573Z,4.97
2023-03-25T02:24:35.455Z,6.67
2023-03-25T02:28:25.921Z,4.90
2023-03-25T02:31:55.388Z,4.27
2023-03-25T02:35:00.295Z,5.57
2023-03-25T02:38:27.790Z,5.43
2023-03-25T02:41:47.244Z,6.10
2023-03-25T02:44:58.253Z,8.00
2023-03-25T02:48:11.786Z,7.00
2023-03-25T02:51:21.436Z,5.25
2023-03-25T02:54:25.942Z,6.53
2023-03-25T02:57:31.115Z,6.45
2023-03-25T03:00:34.586Z,5.80
2023-03-25T03:03:37.210Z,6.47
2023-03-25T03:06:41.864Z,5.93
2023-03-25T03:13:06.374Z,6.73
2023-03-25T03:16:17.631Z,4.80
2023-03-25T03:19:28.668Z,5.00
2023-03-25T03:22:52.859Z,4.37
2023-03-25T03:26:04.681Z,4.80
2023-03-25T03:29:32.293Z,5.07
2023-03-25T03:32:48.568Z,5.50
2023-03-25T03:36:02.365Z,5.37
2023-03-25T03:39:16.913Z,5.60
2023-03-25T03:42:34.173Z,4.78
2023-03-25T03:45:48.677Z,4.60
2023-03-25T03:48:57.467Z,6.13
2023-03-25T03:52:10.754Z,5.87
2023-03-25T03:55:29.333Z,5.23
2023-03-25T03:58:35.760Z,5.70
2023-03-25T04:01:46.446Z,5.37
2023-03-25T04:04:48.635Z,4.57
2023-03-25T04:08:03.910Z,5.87
2023-03-25T04:11:10.577Z,5.07
2023-03-25T04:14:14.207Z,5.60
2023-03-25T04:17:16.264Z,4.83
2023-03-25T04:20:29.853Z,5.13
2023-03-25T04:23:32.064Z,4.53
2023-03-25T04:26:37.960Z,4.57
2023-03-25T04:29:44.122Z,5.17
2023-03-25T04:32:47.538Z,5.00
2023-03-25T04:35:51.664Z,6.93
2023-03-25T04:38:53.929Z,5.00
2023-03-25T04:42:03.582Z,6.40
2023-03-25T04:45:07.638Z,4.77
2023-03-25T04:48:22.516Z,5.17
2023-03-25T04:51:24.506Z,4.05
2023-03-25T04:54:26.642Z,5.77
2023-03-25T04:57:28.679Z,4.63
2023-03-25T05:00:30.677Z,4.87
2023-03-25T05:03:33.781Z,4.30
2023-03-25T05:06:40.751Z,5.07
2023-03-25T05:09:42.806Z,5.03
2023-03-25T05:12:44.944Z,4.63
2023-03-25T05:16:10.075Z,5.97
2023-03-25T05:19:13.215Z,5.93
2023-03-25T05:22:20.425Z,5.60
2023-03-25T05:25:22.845Z,6.03
2023-03-25T05:28:24.863Z,5.47
2023-03-25T05:31:26.916Z,6.40
2023-03-25T05:34:30.049Z,5.97
2023-03-25T05:37:33.123Z,7.30
2023-03-25T05:40:36.302Z,5.70
2023-03-25T05:43:38.772Z,4.83
2023-03-25T05:46:41.040Z,5.60
2023-03-25T05:49:44.260Z,4.73
2023-03-25T05:52:49.587Z,5.57
2023-03-25T05:55:52.583Z,7.27
2023-03-25T05:58:54.907Z,6.60
2023-03-25T06:01:57.993Z,5.77
2023-03-25T06:05:02.838Z,5.67
2023-03-25T06:08:04.911Z,5.57
2023-03-25T06:11:09.304Z,4.47
2023-03-25T06:14:11.377Z,6.43
2023-03-25T06:17:19.153Z,4.83
2023-03-25T06:20:21.703Z,7.17
2023-03-25T06:23:25.051Z,5.80
2023-03-25T06:26:27.789Z,6.10
2023-03-25T06:29:29.894Z,6.80
2023-03-25T06:32:32.133Z,5.57
2023-03-25T06:35:34.174Z,4.83
2023-03-25T06:38:36.280Z,7.10
2023-03-25T06:41:38.452Z,8.33
2023-03-25T06:44:40.471Z,5.90
2023-03-25T06:47:42.651Z,6.73
2023-03-25T06:50:45.876Z,7.60
2023-03-25T06:53:47.959Z,9.27
2023-03-25T06:56:50.128Z,6.30
2023-03-25T06:59:52.190Z,7.50
2023-03-25T07:02:54.738Z,7.30
2023-03-25T07:05:56.922Z,6.10
2023-03-25T07:08:58.938Z,5.80
2023-03-25T07:12:01.877Z,6.40
2023-03-25T07:15:04.146Z,7.03
2023-03-25T07:18:06.252Z,6.70
2023-03-25T07:21:10.285Z,7.55
2023-03-25T07:24:12.523Z,5.75
2023-03-25T07:27:15.871Z,7.90
2023-03-25T07:30:17.981Z,7.00
2023-03-25T07:33:20.060Z,7.65
2023-03-25T07:36:23.768Z,5.22
2023-03-25T07:39:26.392Z,6.60
2023-03-25T07:42:28.460Z,6.95
2023-03-25T07:45:30.564Z,6.72
2023-03-25T07:48:45.931Z,7.93
2023-03-25T07:51:48.017Z,6.95
2023-03-25T07:54:50.435Z,6.40
2023-03-25T07:57:52.539Z,7.40
2023-03-25T08:00:58.157Z,7.60
2023-03-25T08:04:00.428Z,6.18
2023-03-25T08:07:02.721Z,6.28
2023-03-25T08:10:05.030Z,6.20
2023-03-25T08:13:07.145Z,6.88
2023-03-25T08:16:13.583Z,5.95
2023-03-25T08:19:15.740Z,6.75
2023-03-25T08:22:17.695Z,5.82
2023-03-25T08:25:19.687Z,8.00
2023-03-25T08:28:24.256Z,5.63
2023-03-25T08:31:31.197Z,7.07
2023-03-25T08:34:39.572Z,6.38
2023-03-25T08:37:41.565Z,8.40
2023-03-25T08:40:44.338Z,6.18
2023-03-25T08:43:47.670Z,5.88
2023-03-25T08:46:49.671Z,7.00
2023-03-25T08:49:51.781Z,6.60
2023-03-25T08:52:57.611Z,6.22
2023-03-25T08:56:00.268Z,6.30
2023-03-25T08:59:03.329Z,7.05
2023-03-25T09:02:05.995Z,5.60
2023-03-25T09:05:10.954Z,6.25
2023-03-25T09:08:13.566Z,6.20
2023-03-25T09:11:19.857Z,4.95
2023-03-25T09:14:31.292Z,4.85
2023-03-25T09:17:33.353Z,4.55
2023-03-25T09:20:35.674Z,5.03
2023-03-25T09:23:37.783Z,6.57
2023-03-25T09:26:40.063Z,5.70
2023-03-25T09:29:42.591Z,6.30
2023-03-25T09:32:45.276Z,6.60
2023-03-25T09:35:47.491Z,6.47
2023-03-25T09:38:49.841Z,6.15
2023-03-25T09:41:57.762Z,4.35
2023-03-25T09:45:11.830Z,5.90
2023-03-25T09:48:46.113Z,6.05
2023-03-25T09:51:51.336Z,4.50
2023-03-25T09:54:59.558Z,4.13
2023-03-25T09:58:20.986Z,5.13
2023-03-25T10:01:35.039Z,4.80
2023-03-25T10:05:07.699Z,4.35
2023-03-25T10:08:15.373Z,4.20
2023-03-25T10:11:36.101Z,4.03
2023-03-25T10:14:50.316Z,4.07
2023-03-25T10:18:05.452Z,4.32
2023-03-25T10:21:20.529Z,4.50
2023-03-25T10:25:06.106Z,5.03
2023-03-25T10:28:15.623Z,4.55
2023-03-25T10:31:22.206Z,6.10
2023-03-25T10:34:49.884Z,5.45
2023-03-25T10:38:13.968Z,4.95
2023-03-25T10:41:31.238Z,4.55
2023-03-25T10:44:33.425Z,3.88
2023-03-25T10:47:40.192Z,4.35
2023-03-25T10:50:43.488Z,4.60
2023-03-25T10:53:50.193Z,4.15
2023-03-25T10:56:55.452Z,3.63
2023-03-25T11:00:20.991Z,4.43
2023-03-25T11:03:32.164Z,4.10
2023-03-25T11:06:37.744Z,4.00
2023-03-25T11:09:40.932Z,4.05
2023-03-25T11:12:45.437Z,3.80
2023-03-25T11:15:47.881Z,2.97
2023-03-25T11:18:53.804Z,3.08
2023-03-25T11:22:02.926Z,2.72
2023-03-25T11:25:19.581Z,3.38
2023-03-25T11:28:36.212Z,3.17
2023-03-25T11:31:39.648Z,3.13
2023-03-25T11:34:42.424Z,3.22
2023-03-25T11:37:54.249Z,3.40
2023-03-25T11:41:00.116Z,3.42
2023-03-25T11:44:07.101Z,3.33
2023-03-25T11:47:11.909Z,2.30
2023-03-25T11:50:28.747Z,3.08
2023-03-25T11:53:33.382Z,3.30
2023-03-25T11:56:39.047Z,3.72
2023-03-25T11:59:46.417Z,3.85
2023-03-25T12:03:00.309Z,2.60
2023-03-25T12:06:23.979Z,3.15
2023-03-25T12:09:30.273Z,2.80
2023-03-25T12:12:43.371Z,3.85
2023-03-25T12:16:07.458Z,3.42
2023-03-25T12:19:39.874Z,5.88
2023-03-25T12:22:50.324Z,2.85
2023-03-25T12:26:34.830Z,2.97
2023-03-25T12:29:50.398Z,3.17
2023-03-25T12:33:18.222Z,3.30
2023-03-25T12:36:30.702Z,3.13
2023-03-25T12:40:05.529Z,3.25
2023-03-25T12:43:12.033Z,3.17
2023-03-25T12:46:34.365Z,2.90
2023-03-25T12:50:00.448Z,2.50
2023-03-25T12:53:26.663Z,3.78
2023-03-25T12:57:16.084Z,3.42
2023-03-25T13:00:33.004Z,4.07
2023-03-25T13:04:01.646Z,4.22
2023-03-25T13:07:17.856Z,4.70
2023-03-25T13:10:28.232Z,4.40
2023-03-25T13:13:34.318Z,3.50
2023-03-25T13:16:37.667Z,3.72
2023-03-25T13:19:43.939Z,5.20
2023-03-25T13:22:55.138Z,5.35
2023-03-25T13:26:03.637Z,3.45
2023-03-25T13:29:12.270Z,3.72
2023-03-25T13:32:58.264Z,3.70
2023-03-25T13:36:35.943Z,4.70
2023-03-25T13:40:01.246Z,5.70
2023-03-25T13:43:16.367Z,5.35
2023-03-25T13:46:44.113Z,4.78
2023-03-25T13:49:52.198Z,5.43
2023-03-25T13:53:03.708Z,5.30
2023-03-25T13:56:47.405Z,6.03
2023-03-25T14:00:23.044Z,4.43
2023-03-25T14:03:48.097Z,3.60
2023-03-25T14:07:21.386Z,4.47
2023-03-25T14:10:29.769Z,4.28
2023-03-25T14:13:37.978Z,4.47
2023-03-25T14:16:45.277Z,2.45
2023-03-25T14:19:55.378Z,3.60
2023-03-25T14:23:02.060Z,2.85
2023-03-25T14:26:08.509Z,3.60
2023-03-25T14:29:28.298Z,2.85
2023-03-25T14:32:33.546Z,2.45
2023-03-25T14:35:38.214Z,3.38
2023-03-25T14:38:54.601Z,3.10
2023-03-25T14:42:03.831Z,2.22
2023-03-25T14:45:42.452Z,2.92
2023-03-25T14:49:21.936Z,4.13
2023-03-25T14:52:45.340Z,3.72
2023-03-25T14:55:47.995Z,2.80
2023-03-25T14:58:57.361Z,3.00
2023-03-25T15:02:15.150Z,3.00
2023-03-25T15:05:28.807Z,2.70
2023-03-25T15:08:41.993Z,2.63
2023-03-25T15:12:05.156Z,2.53
2023-03-25T15:15:30.081Z,3.92
2023-03-25T15:18:32.216Z,2.53
2023-03-25T15:21:55.596Z,3.97
2023-03-25T15:25:00.344Z,2.88
2023-03-25T15:28:11.280Z,2.17
2023-03-25T15:31:40.934Z,2.80
2023-03-25T15:34:55.167Z,2.78
2023-03-25T15:37:57.261Z,1.88
2023-03-25T15:40:59.222Z,2.13
2023-03-25T15:44:23.008Z,2.97
2023-03-25T15:47:47.237Z,2.00
2023-03-25T15:50:50.010Z,1.95
2023-03-25T15:54:16.345Z,2.15
2023-03-25T15:57:32.048Z,1.48
2023-03-25T16:00:40.738Z,1.85
2023-03-25T16:03:44.950Z,2.60
2023-03-25T16:06:53.151Z,2.40
2023-03-25T16:09:55.689Z,4.03
2023-03-25T16:12:57.781Z,3.72
2023-03-25T16:15:59.970Z,3.13
2023-03-25T16:19:04.859Z,3.67
2023-03-25T16:22:32.933Z,3.25
2023-03-25T16:25:39.125Z,2.60
2023-03-25T16:28:46.506Z,0.90
2023-03-25T16:32:01.636Z,0.57
2023-03-25T16:35:06.093Z,0.63
2023-03-25T16:38:13.299Z,0.93
2023-03-25T16:41:15.865Z,1.60
2023-03-25T16:44:23.646Z,3.90
2023-03-25T16:47:26.956Z,1.77
2023-03-25T16:50:29.001Z,0.80
2023-03-25T16:53:35.283Z,0.40
2023-03-25T16:56:39.212Z,1.23
2023-03-25T16:59:42.161Z,0.50
2023-03-25T17:02:46.306Z,0.85
2023-03-25T17:09:05.178Z,0.98
2023-03-25T17:12:27.533Z,1.60
2023-03-25T17:15:34.700Z,1.10
2023-03-25T17:18:39.232Z,0.80
2023-03-25T17:22:16.603Z,0.77
2023-03-25T17:25:32.476Z,0.98
2023-03-25T17:28:51.579Z,0.75
2023-03-25T17:31:58.593Z,1.23
2023-03-25T17:35:06.945Z,0.90
2023-03-25T17:38:18.176Z,0.98
2023-03-25T17:41:21.464Z,1.08
2023-03-25T17:44:23.589Z,1.27
2023-03-25T17:47:26.268Z,1.33
2023-03-25T17:50:33.244Z,1.63
2023-03-25T17:53:35.360Z,1.08
2023-03-25T17:56:38.726Z,1.08
2023-03-25T17:59:43.893Z,1.50
2023-03-25T18:02:46.860Z,1.20
2023-03-25T18:05:53.572Z,1.30
2023-03-25T18:08:55.653Z,1.92
2023-03-25T18:11:57.974Z,1.55
2023-03-25T18:14:59.979Z,2.47
2023-03-25T18:18:02.355Z,1.38
2023-03-25T18:21:04.901Z,1.60
2023-03-25T18:24:07.709Z,1.25
2023-03-25T18:27:14.637Z,1.38
2023-03-25T18:30:29.936Z,1.10
2023-03-25T18:33:34.791Z,1.23
2023-03-25T18:36:37.638Z,1.30
2023-03-25T18:39:39.868Z,1.38
2023-03-25T18:42:42.532Z,1.17
2023-03-25T18:45:46.974Z,1.00
2023-03-25T18:48:49.135Z,1.23
2023-03-25T18:51:51.477Z,1.02
2023-03-25T18:54:53.527Z,1.08
2023-03-25T18:57:56.328Z,1.00
2023-03-25T19:00:59.489Z,0.95
2023-03-25T19:04:02.542Z,1.02
2023-03-25T19:07:04.815Z,1.70
2023-03-25T19:10:11.870Z,1.70
2023-03-25T19:13:14.625Z,1.08
2023-03-25T19:16:16.916Z,1.48
2023-03-25T19:19:19.062Z,1.67
2023-03-25T19:22:21.228Z,2.45
2023-03-25T19:25:23.253Z,1.70
2023-03-25T19:28:26.670Z,1.70
2023-03-25T19:31:29.788Z,3.88
2023-03-25T19:34:32.125Z,7.07
2023-03-25T19:37:35.463Z,5.95
2023-03-25T19:40:38.422Z,5.30
2023-03-25T19:43:41.173Z,3.13
2023-03-25T19:46:43.512Z,1.35
2023-03-25T19:49:46.380Z,2.97
2023-03-25T19:52:50.983Z,2.03
2023-03-25T19:55:53.956Z,1.88
2023-03-25T19:58:56.785Z,1.60
2023-03-25T20:02:08.584Z,2.67
2023-03-25T20:05:25.605Z,2.03
2023-03-25T20:08:41.528Z,1.73
2023-03-25T20:11:44.856Z,2.30
2023-03-25T20:14:46.890Z,2.50
2023-03-25T20:17:53.360Z,2.50
2023-03-25T20:20:55.752Z,1.92
2023-03-25T20:23:58.065Z,2.10
2023-03-25T20:27:01.323Z,2.50
2023-03-25T20:30:08.734Z,2.08
2023-03-25T20:33:11.244Z,2.53
2023-03-25T20:36:13.478Z,2.97
2023-03-25T20:39:15.717Z,2.50
2023-03-25T20:42:19.275Z,1.83
2023-03-25T20:45:21.718Z,2.95
2023-03-25T20:48:25.742Z,2.20
2023-03-25T20:51:28.452Z,2.13
2023-03-25T20:54:31.644Z,2.58
2023-03-25T20:57:34.228Z,2.65
2023-03-25T21:00:36.788Z,2.50
2023-03-25T21:06:43.365Z,2.42
2023-03-25T21:09:47.853Z,2.20
2023-03-25T21:15:55.028Z,3.22
2023-03-25T21:19:01.858Z,1.98
2023-03-25T21:22:04.396Z,2.63
2023-03-25T21:25:06.849Z,2.72
2023-03-25T21:28:09.465Z,3.67
2023-03-25T21:31:17.208Z,2.30
2023-03-25T21:34:20.183Z,1.95
2023-03-25T21:37:22.258Z,2.55
2023-03-25T21:40:27.320Z,1.77
2023-03-25T21:43:42.653Z,1.20
2023-03-25T21:46:44.681Z,1.77
2023-03-25T21:49:46.776Z,1.48
2023-03-25T21:52:48.816Z,1.95
2023-03-25T21:55:55.493Z,2.67
2023-03-25T21:58:58.377Z,1.98
2023-03-25T22:02:00.449Z,2.13
2023-03-25T22:05:03.889Z,1.67
2023-03-25T22:08:06.908Z,1.95
2023-03-25T22:11:14.300Z,1.92
2023-03-25T22:14:19.639Z,2.47
2023-03-25T22:17:21.973Z,2.00
2023-03-25T22:20:24.186Z,3.40
2023-03-25T22:23:26.189Z,1.88
2023-03-25T22:26:30.305Z,2.10
2023-03-25T22:29:35.230Z,3.20
2023-03-25T22:32:37.482Z,2.10
2023-03-25T22:35:41.101Z,2.97
2023-03-25T22:38:46.629Z,3.13
2023-03-25T22:41:48.725Z,1.90
2023-03-25T22:44:50.861Z,3.38
2023-03-25T22:47:54.150Z,3.30
2023-03-25T22:50:57.017Z,2.80
2023-03-25T22:53:59.026Z,3.20
2023-03-25T23:00:14.404Z,3.25
2023-03-25T23:03:16.730Z,3.28
2023-03-25T23:06:19.035Z,3.47
2023-03-25T23:09:41.078Z,2.95
2023-03-25T23:12:43.157Z,5.13
2023-03-25T23:15:46.270Z,3.83
2023-03-25T23:18:48.629Z,5.22
2023-03-25T23:21:50.674Z,5.20
2023-03-25T23:24:52.768Z,5.38
2023-03-25T23:27:58.144Z,3.65
2023-03-25T23:31:02.613Z,3.67
2023-03-25T23:37:09.372Z,4.28
2023-03-25T23:40:12.694Z,4.03
2023-03-25T23:43:16.503Z,5.30
2023-03-25T23:46:21.427Z,4.43
2023-03-25T23:49:23.494Z,4.10
2023-03-25T23:52:25.614Z,3.90
2023-03-25T23:55:27.875Z,4.40
2023-03-25T23:58:32.415Z,4.90
